Time;durP1;ratioP1;P1;durP2;ratioP2;P2;SDS_P1;SDS_P2;PMS_P1;PMS_P2;Temp;Humidity;BMP_temperature;BMP_pressure;BME280_temperature;BME280_humidity;BME280_pressure;Samples;Min_cycle;Max_cycle;Signal;HPM_P1;HPM_P2
2021/01/16 00:00:35;;;;;;;14.33;5.30;;;0.60;99.90;;;;;;4973525;28;20549;-81
2021/01/16 00:03:01;;;;;;;19.57;7.87;;;0.50;99.90;;;;;;4973155;28;20652;-79
2021/01/16 00:05:29;;;;;;;20.70;7.63;;;0.50;99.90;;;;;;4973086;28;20209;-80
2021/01/16 00:08:03;;;;;;;13.43;5.60;;;0.50;99.90;;;;;;4973164;28;20178;-80
2021/01/16 00:10:29;;;;;;;19.53;7.87;;;0.40;99.90;;;;;;4973085;28;20174;-80
2021/01/16 00:12:55;;;;;;;26.97;9.23;;;0.40;99.90;;;;;;4973368;28;20174;-80
2021/01/16 00:15:22;;;;;;;19.40;7.60;;;0.40;99.90;;;;;;4973054;28;20556;-79
2021/01/16 00:18:00;;;;;;;21.17;7.47;;;0.40;99.90;;;;;;4972853;28;20537;-81
2021/01/16 00:20:27;;;;;;;18.30;6.40;;;0.40;99.90;;;;;;4973230;28;20221;-82
2021/01/16 00:22:53;;;;;;;19.97;7.70;;;0.40;99.90;;;;;;4974463;28;20178;-82
2021/01/16 00:25:18;;;;;;;24.47;8.77;;;0.40;99.90;;;;;;4972819;28;20228;-81
2021/01/16 00:27:44;;;;;;;20.40;6.50;;;0.40;99.90;;;;;;4973078;28;20637;-82
2021/01/16 00:30:11;;;;;;;15.37;6.00;;;0.30;99.90;;;;;;4972815;28;20178;-82
2021/01/16 00:32:38;;;;;;;13.00;5.23;;;0.30;99.90;;;;;;4973000;28;20644;-82
2021/01/16 00:35:13;;;;;;;9.23;4.30;;;0.30;99.90;;;;;;4973090;28;20198;-81
2021/01/16 00:37:39;;;;;;;12.37;4.43;;;0.30;99.90;;;;;;4974236;28;20173;-82
2021/01/16 00:40:09;;;;;;;19.63;7.10;;;0.30;99.90;;;;;;4972745;28;20182;-81
2021/01/16 00:42:46;;;;;;;13.33;4.93;;;0.40;99.90;;;;;;4972959;28;20674;-81
2021/01/16 00:45:13;;;;;;;11.10;4.20;;;0.40;99.90;;;;;;4972803;28;20252;-82
2021/01/16 00:47:40;;;;;;;9.63;3.63;;;0.40;99.90;;;;;;4972743;28;20217;-82
2021/01/16 00:50:07;;;;;;;8.53;3.50;;;0.40;99.90;;;;;;4972780;28;20197;-83
2021/01/16 00:52:33;;;;;;;10.77;4.17;;;0.40;99.90;;;;;;4972443;28;20752;-83
2021/01/16 00:54:59;;;;;;;7.77;3.17;;;0.50;99.90;;;;;;4972615;28;20270;-82
2021/01/16 00:57:26;;;;;;;7.73;3.67;;;0.50;99.90;;;;;;4972480;28;20182;-82
2021/01/16 00:59:52;;;;;;;9.70;3.87;;;0.50;99.90;;;;;;4972151;28;20656;-82
2021/01/16 01:02:17;;;;;;;8.90;3.43;;;0.40;99.90;;;;;;4973801;28;20225;-82
2021/01/16 01:04:43;;;;;;;7.97;3.40;;;0.30;99.90;;;;;;4972628;28;20572;-81
2021/01/16 01:07:10;;;;;;;10.03;3.67;;;0.30;99.90;;;;;;4972571;28;20186;-81
2021/01/16 01:09:35;;;;;;;9.67;3.27;;;0.20;99.90;;;;;;4972469;28;20178;-81
2021/01/16 01:12:01;;;;;;;9.30;3.80;;;0.20;99.90;;;;;;4972675;28;20178;-80
2021/01/16 01:14:26;;;;;;;8.77;3.30;;;0.20;99.90;;;;;;4972382;28;20569;-80
2021/01/16 01:16:52;;;;;;;7.67;3.17;;;0.20;99.90;;;;;;4975278;28;20269;-81
2021/01/16 01:19:17;;;;;;;8.17;3.20;;;0.20;99.90;;;;;;4976072;28;20182;-81
2021/01/16 01:21:43;;;;;;;8.37;3.30;;;0.10;99.90;;;;;;4976279;28;20182;-81
2021/01/16 01:24:09;;;;;;;8.33;3.40;;;-0.10;99.90;;;;;;4975975;28;20240;-82
2021/01/16 01:26:37;;;;;;;8.03;3.07;;;-0.10;99.90;;;;;;4976425;28;20549;-82
2021/01/16 01:29:03;;;;;;;8.50;3.00;;;-0.10;99.90;;;;;;4975861;28;20178;-83
2021/01/16 01:31:29;;;;;;;8.33;3.13;;;0.00;99.90;;;;;;4977496;28;20232;-81
2021/01/16 01:33:54;;;;;;;9.50;3.53;;;0.10;99.90;;;;;;4976033;28;20300;-82
2021/01/16 01:36:20;;;;;;;7.67;3.20;;;0.20;99.90;;;;;;4976300;28;20178;-82
2021/01/16 01:38:45;;;;;;;9.03;3.30;;;0.20;99.90;;;;;;4975880;28;20183;-82
2021/01/16 01:41:11;;;;;;;9.70;3.20;;;0.20;99.90;;;;;;4975998;28;20181;-81
2021/01/16 01:43:36;;;;;;;8.07;3.17;;;0.20;99.90;;;;;;4975841;28;20245;-81
2021/01/16 01:46:03;;;;;;;7.77;3.10;;;0.20;99.90;;;;;;4975926;28;20198;-82
2021/01/16 01:48:29;;;;;;;9.00;3.37;;;0.20;99.90;;;;;;4976902;28;20553;-81
2021/01/16 01:50:55;;;;;;;9.57;3.60;;;0.20;99.90;;;;;;4975787;28;20174;-81
2021/01/16 01:53:23;;;;;;;7.40;3.20;;;0.20;99.90;;;;;;4975753;28;20197;-81
2021/01/16 01:55:54;;;;;;;9.20;3.47;;;0.20;99.90;;;;;;4975782;28;20186;-81
2021/01/16 01:58:23;;;;;;;8.80;3.17;;;0.30;99.90;;;;;;4975065;28;20266;-81
2021/01/16 02:00:50;;;;;;;11.30;3.83;;;0.10;99.90;;;;;;4975515;28;20174;-81
2021/01/16 02:03:16;;;;;;;7.53;3.43;;;0.20;99.90;;;;;;4975345;28;20179;-82
2021/01/16 02:05:42;;;;;;;8.20;3.17;;;0.20;99.90;;;;;;4975757;28;20443;-80
2021/01/16 02:08:07;;;;;;;9.03;3.23;;;0.30;99.90;;;;;;4975375;28;20309;-80
2021/01/16 02:10:33;;;;;;;9.97;3.60;;;0.30;99.90;;;;;;4975273;28;20233;-81
2021/01/16 02:12:59;;;;;;;8.30;3.50;;;0.30;99.90;;;;;;4975346;28;20177;-82
2021/01/16 02:15:39;;;;;;;7.70;3.30;;;0.30;99.90;;;;;;4976891;28;20201;-82
2021/01/16 02:18:26;;;;;;;9.20;3.57;;;0.30;99.90;;;;;;4975166;28;20232;-80
2021/01/16 02:20:54;;;;;;;8.37;3.20;;;0.20;99.90;;;;;;4974989;28;20185;-82
2021/01/16 02:23:29;;;;;;;6.90;3.03;;;0.20;99.90;;;;;;4974955;28;20190;-82
2021/01/16 02:26:19;;;;;;;10.07;3.50;;;0.30;99.90;;;;;;4975428;28;20188;-82
2021/01/16 02:28:58;;;;;;;8.47;3.20;;;0.20;99.90;;;;;;4975103;28;20261;-81
2021/01/16 02:31:29;;;;;;;8.17;3.60;;;0.20;99.90;;;;;;4975260;28;20649;-82
2021/01/16 02:33:57;;;;;;;9.70;3.57;;;0.20;99.90;;;;;;4975307;28;20209;-80
2021/01/16 02:36:38;;;;;;;9.13;3.77;;;0.10;99.90;;;;;;4975033;28;20213;-82
2021/01/16 02:39:18;;;;;;;8.97;3.63;;;0.20;99.90;;;;;;4976089;28;20185;-80
2021/01/16 02:42:13;;;;;;;6.33;3.10;;;0.10;99.90;;;;;;4974775;28;20178;-81
2021/01/16 02:44:43;;;;;;;8.00;3.10;;;0.10;99.90;;;;;;4969477;28;20222;-83
2021/01/16 02:47:22;;;;;;;6.90;2.83;;;0.10;99.90;;;;;;4974849;28;20538;-83
2021/01/16 02:49:59;;;;;;;8.07;3.07;;;0.10;99.90;;;;;;4974549;28;20325;-81
2021/01/16 02:52:29;;;;;;;8.33;3.13;;;0.20;99.90;;;;;;4974765;28;20173;-81
2021/01/16 02:54:56;;;;;;;9.00;3.40;;;0.20;99.90;;;;;;4974563;28;20198;-81
2021/01/16 02:57:22;;;;;;;9.23;3.27;;;0.20;99.90;;;;;;4974836;28;20276;-81
2021/01/16 02:59:48;;;;;;;9.30;3.33;;;0.10;99.90;;;;;;4974288;28;20190;-82
2021/01/16 03:02:16;;;;;;;8.07;3.10;;;0.10;99.90;;;;;;4974486;28;20184;-83
2021/01/16 03:04:42;;;;;;;7.30;2.70;;;0.00;99.90;;;;;;4974337;28;20214;-83
2021/01/16 03:07:10;;;;;;;8.33;3.30;;;0.00;99.90;;;;;;4974502;28;20214;-80
2021/01/16 03:09:37;;;;;;;8.07;3.07;;;0.00;99.90;;;;;;4974217;28;20248;-80
2021/01/16 03:12:04;;;;;;;7.60;2.93;;;0.00;99.90;;;;;;4974338;28;20260;-80
2021/01/16 03:14:44;;;;;;;8.50;3.10;;;0.00;99.90;;;;;;4974354;28;20256;-81
2021/01/16 03:17:14;;;;;;;9.37;3.47;;;0.00;99.90;;;;;;4974554;28;20182;-82
2021/01/16 03:19:48;;;;;;;7.60;3.10;;;0.00;99.90;;;;;;4974050;28;20189;-82
2021/01/16 03:22:21;;;;;;;6.73;2.87;;;-0.20;99.90;;;;;;4974309;28;20340;-80
2021/01/16 03:24:51;;;;;;;9.37;3.37;;;-0.30;99.90;;;;;;4975245;28;20234;-82
2021/01/16 03:27:17;;;;;;;8.13;3.30;;;-0.30;99.90;;;;;;4974114;28;20213;-82
2021/01/16 03:29:43;;;;;;;9.67;3.23;;;-0.40;99.90;;;;;;4973586;28;20273;-82
2021/01/16 03:32:09;;;;;;;7.80;3.23;;;-0.30;99.90;;;;;;4973990;28;20633;-81
2021/01/16 03:34:37;;;;;;;8.70;3.53;;;-0.30;99.90;;;;;;4973866;28;20570;-82
2021/01/16 03:37:03;;;;;;;8.87;3.43;;;-0.30;99.90;;;;;;4973906;28;20531;-82
2021/01/16 03:39:28;;;;;;;7.40;3.53;;;-0.40;99.90;;;;;;4973121;28;20192;-83
2021/01/16 03:41:54;;;;;;;7.40;3.10;;;-0.40;99.90;;;;;;4973879;28;20275;-82
2021/01/16 03:44:20;;;;;;;8.47;3.50;;;-0.40;99.90;;;;;;4973690;28;20260;-82
2021/01/16 03:46:45;;;;;;;9.07;3.67;;;-0.40;99.90;;;;;;4973991;28;20207;-83
2021/01/16 03:49:12;;;;;;;7.67;3.20;;;-0.40;99.90;;;;;;4973556;28;20232;-81
2021/01/16 03:51:38;;;;;;;8.47;3.57;;;-0.40;99.90;;;;;;4973877;28;20222;-83
2021/01/16 03:54:04;;;;;;;8.20;3.30;;;-0.70;99.90;;;;;;4974860;28;20221;-81
2021/01/16 03:56:30;;;;;;;6.63;2.83;;;-0.90;99.90;;;;;;4973818;28;20182;-83
2021/01/16 03:58:55;;;;;;;8.37;3.00;;;-0.80;99.90;;;;;;4973265;28;20205;-82
2021/01/16 04:01:22;;;;;;;6.73;2.40;;;-0.70;99.90;;;;;;4973699;28;20273;-83
2021/01/16 04:03:47;;;;;;;7.50;3.07;;;-0.70;99.90;;;;;;4973392;28;20217;-82
2021/01/16 04:06:17;;;;;;;8.97;3.30;;;-0.60;99.90;;;;;;4973361;28;20178;-84
2021/01/16 04:08:42;;;;;;;7.50;3.27;;;-0.60;99.90;;;;;;4973276;28;20209;-81
2021/01/16 04:11:08;;;;;;;8.50;3.60;;;-0.50;99.90;;;;;;4973154;28;20220;-80
2021/01/16 04:13:34;;;;;;;9.20;3.43;;;-0.50;99.90;;;;;;4974305;28;20233;-81
2021/01/16 04:16:00;;;;;;;6.93;2.70;;;-0.40;99.90;;;;;;4973444;28;20639;-82
2021/01/16 04:18:25;;;;;;;11.87;3.57;;;-0.40;99.90;;;;;;4974764;28;20174;-81
2021/01/16 04:20:51;;;;;;;8.57;2.93;;;-0.50;99.90;;;;;;4973327;28;20182;-81
2021/01/16 04:23:16;;;;;;;7.07;2.87;;;-0.50;99.90;;;;;;4973593;28;20178;-81
2021/01/16 04:25:42;;;;;;;9.23;3.10;;;-0.50;99.90;;;;;;4973441;28;20214;-80
2021/01/16 04:28:07;;;;;;;7.23;2.90;;;-0.60;99.90;;;;;;4973573;28;20185;-81
2021/01/16 04:30:33;;;;;;;8.50;3.23;;;-0.60;99.90;;;;;;4973876;28;20189;-83
2021/01/16 04:32:58;;;;;;;7.90;2.93;;;-0.60;99.90;;;;;;4973896;28;20214;-82
2021/01/16 04:35:24;;;;;;;8.90;3.13;;;-0.60;99.90;;;;;;4973877;28;20222;-82
2021/01/16 04:37:50;;;;;;;9.13;3.60;;;-0.60;99.90;;;;;;4973108;28;20264;-82
2021/01/16 04:40:15;;;;;;;7.30;2.73;;;-0.60;99.90;;;;;;4972853;28;20276;-81
2021/01/16 04:42:43;;;;;;;7.70;2.93;;;-0.70;99.90;;;;;;4973071;28;20628;-81
2021/01/16 04:45:13;;;;;;;8.20;3.30;;;-0.70;99.90;;;;;;4973123;28;20220;-82
2021/01/16 04:47:41;;;;;;;9.43;3.23;;;-0.70;99.90;;;;;;4972879;28;20663;-82
2021/01/16 04:50:12;;;;;;;8.27;2.83;;;-0.80;99.90;;;;;;4972660;28;20182;-81
2021/01/16 04:52:38;;;;;;;7.10;2.73;;;-0.80;99.90;;;;;;4973163;28;20708;-81
2021/01/16 04:55:08;;;;;;;7.47;2.67;;;-0.90;99.90;;;;;;4973066;28;20202;-81
2021/01/16 04:57:35;;;;;;;8.50;3.00;;;-0.90;99.90;;;;;;4972797;28;20586;-80
2021/01/16 05:00:02;;;;;;;8.70;3.27;;;-0.90;99.90;;;;;;4972669;28;20644;-80
2021/01/16 05:02:30;;;;;;;9.37;3.10;;;-1.00;99.90;;;;;;4973098;28;20185;-79
2021/01/16 05:05:00;;;;;;;7.97;2.70;;;-1.00;99.90;;;;;;4972704;28;20224;-79
2021/01/16 05:07:27;;;;;;;7.97;3.10;;;-1.00;99.90;;;;;;4972907;28;20258;-80
2021/01/16 05:09:55;;;;;;;8.30;2.97;;;-1.00;99.90;;;;;;4972732;28;20202;-81
2021/01/16 05:12:30;;;;;;;7.27;2.80;;;-1.00;99.90;;;;;;4974029;28;20167;-80
2021/01/16 05:15:19;;;;;;;10.27;3.80;;;-1.00;99.90;;;;;;4974087;28;20268;-79
2021/01/16 05:17:49;;;;;;;8.00;2.87;;;-1.00;99.90;;;;;;4967523;28;20214;-81
2021/01/16 05:20:15;;;;;;;7.13;3.03;;;-1.00;99.90;;;;;;4974235;28;20655;-82
2021/01/16 05:22:41;;;;;;;8.40;3.10;;;-1.10;99.90;;;;;;4973891;28;20182;-81
2021/01/16 05:51:02;;;;;;;8.53;3.20;;;-1.20;99.90;;;;;;5482035;23;20730;-80
2021/01/16 05:53:28;;;;;;;7.53;2.87;;;-1.20;99.90;;;;;;4973650;28;20624;-81
2021/01/16 05:55:55;;;;;;;8.50;3.17;;;-1.30;99.90;;;;;;4972680;28;20273;-81
2021/01/16 05:58:24;;;;;;;9.03;3.63;;;-1.30;99.90;;;;;;4972314;28;20225;-80
2021/01/16 06:00:51;;;;;;;8.67;2.93;;;-1.20;99.90;;;;;;4971827;28;20195;-81
2021/01/16 06:03:18;;;;;;;8.30;2.87;;;-1.30;99.90;;;;;;4971265;28;20256;-81
2021/01/16 06:05:52;;;;;;;8.93;3.60;;;-1.20;99.90;;;;;;4984100;28;20270;-82
2021/01/16 06:08:19;;;;;;;9.20;3.27;;;-1.20;99.90;;;;;;4986613;28;20194;-82
2021/01/16 06:10:51;;;;;;;7.57;2.93;;;-1.10;99.90;;;;;;4982997;28;20208;-80
2021/01/16 06:13:20;;;;;;;9.27;3.33;;;-1.10;99.90;;;;;;4980275;28;20174;-80
2021/01/16 06:15:48;;;;;;;7.87;3.13;;;-1.10;99.90;;;;;;4977190;28;20185;-80
2021/01/16 06:18:29;;;;;;;10.87;3.40;;;-1.10;99.90;;;;;;4976359;28;20186;-80
2021/01/16 06:20:55;;;;;;;10.13;3.43;;;-1.10;99.90;;;;;;4976267;28;20568;-81
2021/01/16 06:23:23;;;;;;;11.20;3.63;;;-1.10;99.90;;;;;;4975805;28;20194;-81
2021/01/16 06:25:54;;;;;;;12.03;4.20;;;-1.10;99.90;;;;;;4976274;28;20632;-80
2021/01/16 06:28:24;;;;;;;9.03;3.50;;;-1.10;99.90;;;;;;4979418;28;20221;-81
2021/01/16 06:30:54;;;;;;;8.23;3.20;;;-1.20;99.90;;;;;;4979038;28;20203;-81
2021/01/16 06:33:25;;;;;;;8.63;3.23;;;-1.10;99.90;;;;;;4978173;28;20174;-81
2021/01/16 06:35:57;;;;;;;7.83;3.07;;;-1.10;99.90;;;;;;4978433;28;20531;-80
2021/01/16 06:38:29;;;;;;;10.03;3.77;;;-1.20;99.90;;;;;;4978683;28;20241;-80
2021/01/16 06:40:55;;;;;;;7.20;3.13;;;-1.20;99.90;;;;;;4977628;28;20198;-81
2021/01/16 06:43:25;;;;;;;8.27;3.33;;;-1.30;99.90;;;;;;4974913;28;20755;-81
2021/01/16 06:45:51;;;;;;;11.97;4.33;;;-1.30;99.90;;;;;;4974968;28;20217;-80
2021/01/16 06:48:17;;;;;;;9.87;3.97;;;-1.30;99.90;;;;;;4975486;28;20178;-82
2021/01/16 06:50:42;;;;;;;9.50;3.83;;;-1.30;99.90;;;;;;4974677;28;20242;-81
2021/01/16 06:53:24;;;;;;;11.07;3.73;;;-1.30;99.90;;;;;;4975814;28;20178;-80
2021/01/16 06:56:04;;;;;;;9.07;3.40;;;-1.30;99.90;;;;;;4977966;28;20185;-81
2021/01/16 06:58:40;;;;;;;8.53;3.33;;;-1.30;99.90;;;;;;4976700;28;20185;-80
2021/01/16 07:01:08;;;;;;;8.23;3.17;;;-1.20;99.90;;;;;;4977712;28;20291;-80
2021/01/16 07:03:45;;;;;;;10.70;3.80;;;-1.20;99.90;;;;;;4977975;28;20178;-81
2021/01/16 07:06:11;;;;;;;8.70;3.70;;;-1.20;99.90;;;;;;4976420;28;20197;-81
2021/01/16 07:08:39;;;;;;;9.17;3.37;;;-1.20;99.90;;;;;;4974973;28;20261;-80
2021/01/16 07:11:07;;;;;;;8.60;3.30;;;-1.20;99.90;;;;;;4974147;28;20660;-81
2021/01/16 07:13:32;;;;;;;7.97;3.50;;;-1.20;99.90;;;;;;4975271;28;20182;-80
2021/01/16 07:15:59;;;;;;;9.70;3.83;;;-1.20;99.90;;;;;;4976153;28;20181;-81
2021/01/16 07:18:26;;;;;;;9.70;3.87;;;-1.10;99.90;;;;;;4976791;28;20267;-80
2021/01/16 07:20:57;;;;;;;13.07;4.40;;;-1.20;99.90;;;;;;4976078;28;20568;-80
2021/01/16 07:23:23;;;;;;;10.57;4.30;;;-1.10;99.90;;;;;;4976074;28;20178;-81
2021/01/16 07:25:52;;;;;;;12.63;4.47;;;-1.10;99.90;;;;;;4974577;28;20217;-81
2021/01/16 07:28:37;;;;;;;10.87;4.47;;;-1.10;99.90;;;;;;4975215;28;20182;-82
2021/01/16 07:31:03;;;;;;;9.73;3.83;;;-1.10;99.90;;;;;;4976681;28;20194;-81
2021/01/16 07:33:29;;;;;;;8.70;4.03;;;-1.00;99.90;;;;;;4970057;28;20182;-81
2021/01/16 07:35:58;;;;;;;12.25;5.78;;;-1.00;99.90;;;;;;4970578;28;20415;-81
2021/01/16 07:38:26;;;;;;;11.93;4.80;;;-0.90;99.90;;;;;;4957331;29;20770;-81
2021/01/16 07:40:56;;;;;;;11.63;4.43;;;-1.00;99.90;;;;;;4968612;28;20210;-81
2021/01/16 07:44:03;;;;;;;11.77;4.47;;;-0.90;99.90;;;;;;4975284;28;20597;-81
2021/01/16 07:46:30;;;;;;;13.53;4.10;;;-0.60;99.90;;;;;;4936629;28;20186;-80
2021/01/16 07:48:58;;;;;;;14.20;5.67;;;-0.10;99.90;;;;;;4974450;28;20268;-81
2021/01/16 07:51:36;;;;;;;14.50;6.00;;;0.40;99.90;;;;;;4974124;28;20210;-81
2021/01/16 07:54:07;;;;;;;12.60;5.73;;;1.00;99.90;;;;;;4974031;28;20193;-81
2021/01/16 07:56:39;;;;;;;15.33;5.90;;;1.50;99.90;;;;;;4974457;28;20201;-82
2021/01/16 07:59:17;;;;;;;10.80;5.27;;;2.10;99.90;;;;;;4976519;28;20676;-82
2021/01/16 08:02:19;;;;;;;12.47;5.50;;;2.60;99.90;;;;;;4980668;28;20220;-82
2021/01/16 08:05:16;;;;;;;11.97;5.57;;;2.90;99.90;;;;;;4995944;28;20212;-83
2021/01/16 08:08:25;;;;;;;13.43;5.83;;;3.20;99.90;;;;;;4993697;28;20169;-82
2021/01/16 08:10:55;;;;;;;12.00;5.30;;;3.50;99.90;;;;;;4993253;28;20198;-82
2021/01/16 08:13:23;;;;;;;11.83;5.50;;;3.70;99.90;;;;;;4993146;28;20643;-82
2021/01/16 08:15:50;;;;;;;12.63;5.17;;;3.90;99.90;;;;;;4993027;28;20213;-83
2021/01/16 08:18:20;;;;;;;13.10;5.60;;;4.10;99.90;;;;;;4993560;28;20212;-83
2021/01/16 08:20:48;;;;;;;13.70;6.07;;;4.30;99.90;;;;;;4993730;28;20202;-81
2021/01/16 08:23:22;;;;;;;11.90;5.07;;;4.50;99.90;;;;;;4992862;28;20181;-82
2021/01/16 08:25:48;;;;;;;12.93;5.57;;;4.60;99.90;;;;;;4992553;28;20200;-82
2021/01/16 08:28:25;;;;;;;11.13;5.07;;;4.70;99.90;;;;;;4993542;28;20710;-83
2021/01/16 08:30:51;;;;;;;10.97;5.33;;;4.80;99.90;;;;;;4993009;28;20201;-82
2021/01/16 08:33:17;;;;;;;10.03;4.90;;;4.80;99.90;;;;;;4994166;28;20652;-82
2021/01/16 08:35:45;;;;;;;11.67;5.30;;;4.80;99.90;;;;;;4974496;28;20198;-83
2021/01/16 08:38:17;;;;;;;10.20;5.07;;;4.90;99.90;;;;;;4974405;28;20178;-81
2021/01/16 08:41:02;;;;;;;11.23;4.33;;;4.90;99.90;;;;;;4977124;28;20206;-82
2021/01/16 08:43:43;;;;;;;10.93;5.20;;;4.90;99.90;;;;;;4975874;28;20202;-82
2021/01/16 08:46:23;;;;;;;10.53;5.00;;;5.00;99.90;;;;;;4984214;28;20170;-84
2021/01/16 08:49:09;;;;;;;10.10;4.80;;;5.00;99.90;;;;;;4990821;28;20178;-82
2021/01/16 08:51:42;;;;;;;10.67;5.03;;;5.10;99.90;;;;;;4976225;28;20202;-85
2021/01/16 08:54:13;;;;;;;11.60;5.40;;;5.10;99.90;;;;;;4974160;28;20194;-84
2021/01/16 08:56:41;;;;;;;11.03;5.07;;;5.20;99.90;;;;;;4976432;28;20183;-85
2021/01/16 08:59:32;;;;;;;10.43;4.93;;;5.30;99.90;;;;;;4990494;28;20175;-85
2021/01/16 09:04:32;;;;;;;12.23;5.20;;;5.50;99.90;;;;;;4968716;28;20230;-82
2021/01/16 09:07:24;;;;;;;12.17;5.77;;;5.60;99.90;;;;;;4976287;28;20186;-83
2021/01/16 09:10:00;;;;;;;11.00;5.23;;;5.70;99.90;;;;;;4980153;28;20182;-82
2021/01/16 09:12:32;;;;;;;11.60;6.20;;;5.80;99.90;;;;;;4972515;28;20218;-82
2021/01/16 09:15:19;;;;;;;11.43;5.50;;;5.90;99.90;;;;;;4968324;28;20189;-81
2021/01/16 09:18:06;;;;;;;13.13;6.00;;;6.00;99.90;;;;;;4970314;28;20191;-83
2021/01/16 09:20:33;;;;;;;11.60;5.80;;;6.10;99.90;;;;;;4975514;28;20191;-83
2021/01/16 09:23:23;;;;;;;14.40;5.67;;;6.10;99.90;;;;;;4956484;29;20183;-82
2021/01/16 09:26:03;;;;;;;12.90;6.47;;;6.10;99.90;;;;;;4950833;29;20265;-82
2021/01/16 09:29:04;;;;;;;10.67;5.43;;;6.20;99.90;;;;;;4976236;28;20275;-83
2021/01/16 09:31:43;;;;;;;13.67;6.03;;;6.10;99.90;;;;;;4977202;28;20206;-82
2021/01/16 09:34:14;;;;;;;23.63;7.57;;;5.90;99.90;;;;;;4955655;29;20184;-83
2021/01/16 09:36:42;;;;;;;18.97;6.17;;;5.60;99.90;;;;;;4965691;28;20193;-82
2021/01/16 09:39:32;;;;;;;12.50;5.53;;;5.20;99.90;;;;;;4978555;28;20183;-83
2021/01/16 09:42:22;;;;;;;12.97;5.90;;;4.90;99.90;;;;;;4974904;28;20221;-82
2021/01/16 09:44:55;;;;;;;13.67;5.70;;;4.50;99.90;;;;;;4970141;29;20222;-83
2021/01/16 09:47:27;;;;;;;11.43;5.63;;;4.10;99.90;;;;;;4971506;29;20188;-82
2021/01/16 09:50:11;;;;;;;10.40;5.13;;;3.70;99.90;;;;;;4971212;28;20180;-83
2021/01/16 09:52:44;;;;;;;13.63;5.90;;;3.40;99.90;;;;;;4957133;29;20193;-83
2021/01/16 09:55:38;;;;;;;15.13;5.00;;;3.20;99.90;;;;;;4975103;29;20721;-82
2021/01/16 09:58:23;;;;;;;12.57;5.40;;;3.20;99.90;;;;;;4970147;28;20263;-82
2021/01/16 10:00:50;;;;;;;10.23;4.87;;;2.90;99.90;;;;;;4988282;28;20294;-82
2021/01/16 10:03:30;;;;;;;12.67;5.60;;;2.80;99.90;;;;;;4969098;29;20302;-82
2021/01/16 10:06:03;;;;;;;12.33;5.53;;;2.80;99.90;;;;;;4970225;29;20211;-83
2021/01/16 10:08:32;;;;;;;12.17;5.10;;;2.70;99.90;;;;;;4964691;28;20183;-84
2021/01/16 10:10:59;;;;;;;12.77;6.00;;;2.50;99.90;;;;;;4984328;28;20213;-83
2021/01/16 10:13:35;;;;;;;13.77;6.03;;;2.30;99.90;;;;;;4973426;28;20183;-83
2021/01/16 10:16:08;;;;;;;14.30;5.43;;;2.40;99.90;;;;;;4968776;29;20212;-84
2021/01/16 10:18:35;;;;;;;11.17;5.43;;;2.50;99.90;;;;;;4971674;28;20202;-82
2021/01/16 10:21:09;;;;;;;11.17;5.23;;;2.70;99.90;;;;;;4961604;28;20216;-83
2021/01/16 10:23:42;;;;;;;11.40;5.00;;;2.60;99.90;;;;;;4949716;29;20195;-83
2021/01/16 10:26:16;;;;;;;11.00;5.13;;;2.50;99.90;;;;;;4950260;29;20192;-83
2021/01/16 10:28:48;;;;;;;12.97;6.07;;;2.40;99.90;;;;;;4964760;28;20182;-83
2021/01/16 10:31:14;;;;;;;10.90;5.17;;;2.30;99.90;;;;;;4975349;28;20198;-83
2021/01/16 10:33:44;;;;;;;12.47;5.30;;;2.40;99.90;;;;;;4975995;28;20190;-83
2021/01/16 10:36:14;;;;;;;15.07;6.50;;;2.20;99.90;;;;;;4967292;28;20230;-82
2021/01/16 10:38:55;;;;;;;11.70;5.23;;;1.80;99.90;;;;;;4968755;28;20250;-83
2021/01/16 10:41:33;;;;;;;11.57;5.60;;;1.80;99.90;;;;;;4984953;28;20210;-83
2021/01/16 10:44:05;;;;;;;12.60;5.37;;;1.70;99.90;;;;;;4977604;28;20208;-84
2021/01/16 10:46:40;;;;;;;13.33;5.77;;;1.70;99.90;;;;;;5024650;23;20241;-83
2021/01/16 10:49:24;;;;;;;13.47;6.20;;;1.70;99.90;;;;;;4992085;28;20182;-84
2021/01/16 10:52:03;;;;;;;13.73;5.80;;;1.60;99.90;;;;;;5002180;28;20229;-84
2021/01/16 10:54:30;;;;;;;15.27;6.87;;;1.80;99.90;;;;;;5063685;23;20202;-82
2021/01/16 11:09:46;;;;;;;14.70;5.47;;;1.70;99.90;;;;;;4994234;28;20206;-83
2021/01/16 11:12:23;;;;;;;14.30;6.53;;;1.80;99.90;;;;;;5066189;23;20238;-83
2021/01/16 11:14:55;;;;;;;12.67;6.10;;;1.90;99.90;;;;;;4992222;28;20189;-83
2021/01/16 11:17:40;;;;;;;16.33;6.57;;;2.00;99.90;;;;;;5013168;23;20284;-83
2021/01/16 11:20:17;;;;;;;16.50;6.50;;;2.00;99.90;;;;;;4993389;28;20193;-83
2021/01/16 11:23:07;;;;;;;16.40;7.33;;;1.90;99.90;;;;;;4989982;28;20186;-82
2021/01/16 11:25:43;;;;;;;13.33;6.73;;;1.90;99.90;;;;;;4991963;28;20285;-84
2021/01/16 11:28:11;;;;;;;14.90;6.47;;;2.00;99.90;;;;;;4994056;28;20187;-87
2021/01/16 11:33:24;;;;;;;14.77;6.63;;;2.00;99.90;;;;;;5234997;23;20742;-85
2021/01/16 11:36:03;;;;;;;14.00;5.83;;;2.20;99.90;;;;;;4974282;28;20246;-86
2021/01/16 11:38:50;;;;;;;13.57;5.97;;;2.20;99.90;;;;;;4973670;28;20182;-84
2021/01/16 11:41:54;;;;;;;14.07;6.33;;;2.20;99.90;;;;;;4975162;28;20214;-86
2021/01/16 11:44:20;;;;;;;16.90;7.33;;;2.20;99.90;;;;;;4971513;28;20210;-85
2021/01/16 11:46:51;;;;;;;16.67;6.70;;;2.20;99.90;;;;;;4960299;28;20186;-86
2021/01/16 11:49:17;;;;;;;15.13;6.57;;;2.20;99.90;;;;;;4958240;28;20179;-85
2021/01/16 11:51:44;;;;;;;13.43;6.33;;;2.30;99.90;;;;;;4957738;28;20199;-84
2021/01/16 11:54:09;;;;;;;14.67;6.47;;;2.40;99.90;;;;;;4959768;28;20183;-87
2021/01/16 11:56:38;;;;;;;15.17;6.63;;;2.40;99.90;;;;;;4956302;28;20190;-85
2021/01/16 11:59:04;;;;;;;14.33;6.20;;;2.20;99.90;;;;;;4958609;28;20235;-86
2021/01/16 12:01:31;;;;;;;14.60;6.57;;;2.10;99.90;;;;;;4952730;28;20213;-85
2021/01/16 12:09:14;;;;;;;17.60;7.30;;;2.20;99.90;;;;;;5780526;23;20236;-87
2021/01/16 12:11:41;;;;;;;17.20;7.40;;;2.10;99.90;;;;;;4992885;28;20177;-86
2021/01/16 12:14:06;;;;;;;15.47;7.90;;;2.10;99.90;;;;;;4989154;28;20573;-88
2021/01/16 12:16:37;;;;;;;14.50;6.30;;;2.00;99.90;;;;;;4970859;28;20273;-89
2021/01/16 12:19:04;;;;;;;15.50;7.70;;;2.10;99.90;;;;;;4964001;28;20505;-91
2021/01/16 12:21:30;;;;;;;15.33;6.83;;;2.20;99.90;;;;;;4966891;28;20190;-89
2021/01/16 12:23:59;;;;;;;17.17;7.10;;;2.20;99.90;;;;;;4967525;28;20254;-90
2021/01/16 12:26:25;;;;;;;13.93;6.60;;;2.30;99.90;;;;;;4961046;28;20175;-88
2021/01/16 12:28:56;;;;;;;15.43;7.30;;;2.30;99.90;;;;;;4958294;28;20186;-88
2021/01/16 12:31:24;;;;;;;14.30;6.20;;;2.30;99.90;;;;;;4961353;28;20647;-88
2021/01/16 12:33:50;;;;;;;15.60;7.10;;;2.30;99.90;;;;;;4957989;28;20211;-88
2021/01/16 12:36:17;;;;;;;14.87;6.47;;;2.20;99.90;;;;;;4972427;28;20182;-88
2021/01/16 12:38:48;;;;;;;13.97;6.10;;;2.20;99.90;;;;;;4973741;28;20185;-91
2021/01/16 12:41:24;;;;;;;15.47;7.33;;;2.30;99.90;;;;;;4964109;28;20175;-89
2021/01/16 12:43:56;;;;;;;14.03;7.10;;;2.30;99.90;;;;;;4971018;28;20202;-90
2021/01/16 12:46:22;;;;;;;15.97;6.87;;;2.00;99.90;;;;;;4988884;28;20178;-90
2021/01/16 12:48:49;;;;;;;14.57;6.73;;;2.00;99.90;;;;;;4969308;28;20707;-88
2021/01/16 12:51:15;;;;;;;17.77;8.13;;;2.10;99.90;;;;;;4973066;28;20175;-90
2021/01/16 12:53:44;;;;;;;18.43;7.70;;;2.20;99.90;;;;;;4961288;28;20171;-88
2021/01/16 12:56:15;;;;;;;14.33;6.33;;;2.20;99.90;;;;;;4971748;28;20178;-88
2021/01/16 12:58:40;;;;;;;13.03;6.13;;;2.20;99.90;;;;;;4972910;28;20225;-91
2021/01/16 13:01:06;;;;;;;15.07;6.70;;;2.40;99.90;;;;;;4960264;28;20745;-88
2021/01/16 13:03:32;;;;;;;15.27;7.00;;;2.40;99.90;;;;;;4954376;29;20178;-88
2021/01/16 13:06:01;;;;;;;15.53;7.17;;;2.30;99.90;;;;;;4960816;28;20207;-87
2021/01/16 13:08:28;;;;;;;17.50;7.40;;;2.40;99.90;;;;;;4964340;28;20178;-87
2021/01/16 13:10:54;;;;;;;14.73;7.47;;;2.40;99.90;;;;;;4966044;28;20649;-87
2021/01/16 13:13:20;;;;;;;17.87;7.43;;;2.30;99.90;;;;;;4975643;28;20174;-87
2021/01/16 13:15:47;;;;;;;16.73;6.87;;;2.40;99.90;;;;;;4977750;28;20209;-87
2021/01/16 13:18:17;;;;;;;13.77;6.80;;;2.40;99.90;;;;;;4970575;28;20186;-87
2021/01/16 13:20:50;;;;;;;21.63;6.83;;;2.40;99.90;;;;;;4959496;28;20186;-87
2021/01/16 13:23:16;;;;;;;15.80;7.37;;;2.40;99.90;;;;;;4970518;28;20315;-87
2021/01/16 13:25:46;;;;;;;21.70;11.13;;;2.40;99.90;;;;;;4959580;28;20214;-87
2021/01/16 13:28:16;;;;;;;20.70;9.97;;;2.30;99.90;;;;;;4975568;28;20537;-86
2021/01/16 13:30:42;;;;;;;16.43;7.93;;;2.10;99.90;;;;;;4973352;28;20640;-88
2021/01/16 13:33:08;;;;;;;18.23;7.60;;;2.10;99.90;;;;;;4962847;28;20175;-87
2021/01/16 13:35:35;;;;;;;13.27;6.57;;;2.20;99.90;;;;;;4967550;28;20206;-86
2021/01/16 13:38:01;;;;;;;18.37;8.10;;;2.20;99.90;;;;;;4977193;28;20232;-88
2021/01/16 13:40:27;;;;;;;20.30;8.93;;;2.30;99.90;;;;;;4969933;28;20178;-87
2021/01/16 13:43:04;;;;;;;25.33;11.60;;;2.30;99.90;;;;;;4979592;28;20676;-87
2021/01/16 13:45:30;;;;;;;25.77;12.37;;;2.30;99.90;;;;;;4985937;28;20695;-87
2021/01/16 13:47:56;;;;;;;26.10;11.63;;;2.30;99.90;;;;;;4980204;28;20637;-88
2021/01/16 13:50:24;;;;;;;21.80;10.87;;;2.30;99.90;;;;;;4960374;28;20202;-90
2021/01/16 13:52:52;;;;;;;24.17;10.33;;;2.30;99.90;;;;;;4979789;28;20166;-87
2021/01/16 13:55:26;;;;;;;20.67;9.57;;;2.30;99.90;;;;;;4977241;28;20221;-88